createdAt,value
2023-02-16T00:00:21.182Z,3.00
2023-02-16T00:02:53.045Z,3.20
2023-02-16T00:05:24.904Z,1.80
2023-02-16T00:07:56.760Z,2.07
2023-02-16T00:10:28.317Z,2.10
2023-02-16T00:13:18.634Z,2.60
2023-02-16T00:15:50.177Z,2.38
2023-02-16T00:18:21.694Z,2.50
2023-02-16T00:20:53.169Z,2.92
2023-02-16T00:23:24.977Z,2.30
2023-02-16T00:25:56.461Z,2.20
2023-02-16T00:28:28.290Z,2.95
2023-02-16T00:30:59.911Z,2.13
2023-02-16T00:33:31.826Z,2.13
2023-02-16T00:36:03.320Z,2.03
2023-02-16T00:38:35.139Z,3.00
2023-02-16T00:41:26.584Z,1.70
2023-02-16T00:43:58.453Z,2.70
2023-02-16T00:46:29.993Z,2.80
2023-02-16T00:49:01.979Z,1.92
2023-02-16T00:51:33.468Z,2.45
2023-02-16T00:54:05.288Z,1.88
2023-02-16T00:56:36.795Z,2.13
2023-02-16T00:59:08.667Z,2.92
2023-02-16T01:01:40.198Z,2.93
2023-02-16T01:04:12.144Z,2.17
2023-02-16T01:07:02.410Z,2.78
2023-02-16T01:09:52.935Z,2.22
2023-02-16T01:12:24.497Z,3.40
2023-02-16T01:14:56.268Z,2.22
2023-02-16T01:17:27.765Z,1.45
2023-02-16T01:19:59.570Z,2.03
2023-02-16T01:22:33.440Z,2.77
2023-02-16T01:25:05.298Z,2.53
2023-02-16T01:27:37.168Z,4.03
2023-02-16T01:30:08.711Z,2.45
2023-02-16T01:32:40.222Z,3.10
2023-02-16T01:35:11.739Z,1.55
2023-02-16T01:37:43.339Z,2.42
2023-02-16T01:40:14.928Z,2.17
2023-02-16T01:42:46.401Z,2.88
2023-02-16T01:45:17.917Z,3.13
2023-02-16T01:47:49.521Z,2.55
2023-02-16T01:50:21.053Z,3.30
2023-02-16T01:52:52.548Z,2.28
2023-02-16T01:55:24.311Z,3.00
2023-02-16T01:57:56.109Z,2.30
2023-02-16T02:00:27.619Z,3.47
2023-02-16T02:03:19.098Z,2.55
2023-02-16T02:05:50.610Z,2.53
2023-02-16T02:08:22.556Z,2.00
2023-02-16T02:10:54.041Z,3.10
2023-02-16T02:13:25.596Z,2.60
2023-02-16T02:15:57.138Z,2.03
2023-02-16T02:18:28.912Z,2.85
2023-02-16T02:21:19.274Z,2.88
2023-02-16T02:23:51.086Z,2.00
2023-02-16T02:26:22.567Z,2.63
2023-02-16T02:28:54.399Z,2.40
2023-02-16T02:31:25.942Z,2.77
2023-02-16T02:33:57.791Z,1.85
2023-02-16T02:36:29.291Z,2.83
2023-02-16T02:39:01.110Z,1.77
2023-02-16T02:41:51.350Z,1.83
2023-02-16T02:44:23.199Z,2.22
2023-02-16T02:46:54.799Z,2.90
2023-02-16T02:49:26.683Z,2.40
2023-02-16T02:51:58.180Z,2.42
2023-02-16T02:54:48.645Z,2.03
2023-02-16T02:57:38.658Z,2.40
2023-02-16T03:00:29.084Z,3.05
2023-02-16T03:03:00.635Z,3.17
2023-02-16T03:05:32.353Z,2.20
2023-02-16T03:08:14.280Z,2.72
2023-02-16T03:11:05.017Z,1.67
2023-02-16T03:13:36.965Z,2.60
2023-02-16T03:16:08.516Z,3.10
2023-02-16T03:18:58.944Z,3.13
2023-02-16T03:21:49.265Z,2.72
2023-02-16T03:24:39.548Z,2.63
2023-02-16T03:27:29.598Z,1.45
2023-02-16T03:30:01.243Z,1.98
2023-02-16T03:32:32.785Z,2.78
2023-02-16T03:35:04.580Z,1.13
2023-02-16T03:37:36.048Z,1.30
2023-02-16T03:40:26.504Z,1.77
2023-02-16T03:42:58.180Z,1.85
2023-02-16T03:45:30.218Z,2.67
2023-02-16T03:48:01.806Z,1.60
2023-02-16T03:50:33.670Z,3.33
2023-02-16T03:53:08.255Z,2.63
2023-02-16T03:55:40.084Z,2.28
2023-02-16T03:58:11.571Z,2.63
2023-02-16T04:00:43.389Z,2.67
2023-02-16T04:03:14.869Z,3.07
2023-02-16T04:05:46.728Z,2.58
2023-02-16T04:08:18.201Z,1.53
2023-02-16T04:10:49.927Z,2.10
2023-02-16T04:13:21.424Z,1.70
2023-02-16T04:15:53.323Z,4.32
2023-02-16T04:18:24.816Z,2.33
2023-02-16T04:20:56.288Z,3.03
2023-02-16T04:23:27.756Z,3.28
2023-02-16T04:25:59.263Z,1.83
2023-02-16T04:28:30.736Z,2.42
2023-02-16T04:31:02.822Z,2.88
2023-02-16T04:33:34.947Z,1.90
2023-02-16T04:36:06.473Z,2.40
2023-02-16T04:38:38.503Z,2.28
2023-02-16T04:41:09.974Z,2.67
2023-02-16T04:43:41.822Z,3.40
2023-02-16T04:46:13.358Z,2.97
2023-02-16T04:48:45.176Z,1.60
2023-02-16T04:51:16.733Z,2.90
2023-02-16T04:53:48.249Z,1.85
2023-02-16T04:56:19.721Z,3.15
2023-02-16T04:58:51.470Z,3.05
2023-02-16T05:01:23.028Z,2.40
2023-02-16T05:03:54.893Z,2.22
2023-02-16T05:06:26.459Z,1.80
2023-02-16T05:08:58.272Z,3.42
2023-02-16T05:11:48.857Z,2.57
2023-02-16T05:14:39.344Z,2.33
2023-02-16T05:17:10.864Z,2.80
2023-02-16T05:19:42.751Z,2.08
2023-02-16T05:22:14.345Z,2.97
2023-02-16T05:24:46.079Z,2.42
2023-02-16T05:27:17.585Z,2.20
2023-02-16T05:29:49.198Z,1.92
2023-02-16T05:32:20.718Z,2.22
2023-02-16T05:34:52.565Z,2.08
2023-02-16T05:37:24.057Z,2.03
2023-02-16T05:39:55.938Z,2.00
2023-02-16T05:42:27.490Z,2.78
2023-02-16T05:44:59.387Z,2.80
2023-02-16T05:47:30.936Z,2.92
2023-02-16T05:50:02.432Z,2.45
2023-02-16T05:52:33.907Z,1.85
2023-02-16T05:55:05.827Z,3.78
2023-02-16T05:57:37.373Z,1.67
2023-02-16T06:00:09.037Z,2.42
2023-02-16T06:02:40.585Z,2.38
2023-02-16T06:05:12.454Z,3.42
2023-02-16T06:07:44.223Z,3.50
2023-02-16T06:10:16.328Z,3.33
2023-02-16T06:12:47.820Z,2.22
2023-02-16T06:15:19.527Z,1.90
2023-02-16T06:17:51.204Z,3.20
2023-02-16T06:20:23.016Z,2.45
2023-02-16T06:22:54.574Z,1.63
2023-02-16T06:25:26.397Z,3.10
2023-02-16T06:27:57.900Z,1.97
2023-02-16T06:30:29.792Z,2.42
2023-02-16T06:33:01.314Z,3.13
2023-02-16T06:35:33.132Z,2.03
2023-02-16T06:38:04.611Z,3.13
2023-02-16T06:40:36.385Z,2.53
2023-02-16T06:43:08.098Z,3.53
2023-02-16T06:45:40.011Z,2.80
2023-02-16T06:48:11.522Z,2.05
2023-02-16T06:50:43.509Z,1.90
2023-02-16T06:53:14.997Z,2.43
2023-02-16T06:55:46.814Z,2.85
2023-02-16T06:58:18.356Z,2.00
2023-02-16T07:00:50.244Z,2.38
2023-02-16T07:03:21.780Z,3.50
2023-02-16T07:05:53.791Z,2.35
2023-02-16T07:08:25.307Z,2.88
2023-02-16T07:10:57.040Z,2.72
2023-02-16T07:13:28.508Z,3.13
2023-02-16T07:16:00.043Z,3.03
2023-02-16T07:18:31.745Z,2.90
2023-02-16T07:21:03.854Z,3.88
2023-02-16T07:23:35.490Z,3.22
2023-02-16T07:26:07.297Z,3.95
2023-02-16T07:28:38.856Z,4.03
2023-02-16T07:31:10.819Z,2.15
2023-02-16T07:33:42.410Z,3.00
2023-02-16T07:36:13.908Z,3.42
2023-02-16T07:38:45.412Z,2.45
2023-02-16T07:41:16.950Z,2.78
2023-02-16T07:43:48.454Z,2.35
2023-02-16T07:46:19.993Z,2.90
2023-02-16T07:48:51.499Z,3.97
2023-02-16T07:51:23.202Z,3.88
2023-02-16T07:53:54.688Z,3.22
2023-02-16T07:56:26.531Z,3.00
2023-02-16T07:58:57.998Z,2.67
2023-02-16T08:01:30.317Z,4.07
2023-02-16T08:04:01.844Z,3.45
2023-02-16T08:06:33.518Z,4.75
2023-02-16T08:09:05.013Z,3.47
2023-02-16T08:11:36.735Z,3.22
2023-02-16T08:14:08.254Z,5.00
2023-02-16T08:16:40.201Z,3.83
2023-02-16T08:19:13.751Z,3.25
2023-02-16T08:21:49.682Z,3.58
2023-02-16T08:24:21.281Z,3.33
2023-02-16T08:26:54.053Z,5.38
2023-02-16T08:31:57.326Z,4.45
2023-02-16T08:34:28.880Z,3.88
2023-02-16T08:37:00.578Z,4.88
2023-02-16T08:39:32.854Z,4.40
2023-02-16T08:42:04.771Z,3.60
2023-02-16T08:44:36.422Z,3.60
2023-02-16T08:47:09.647Z,4.05
2023-02-16T08:49:41.197Z,4.03
2023-02-16T08:52:13.033Z,3.47
2023-02-16T08:54:44.519Z,5.15
2023-02-16T08:57:16.062Z,4.65
2023-02-16T09:00:07.556Z,4.15
2023-02-16T09:02:39.254Z,4.78
2023-02-16T09:05:11.208Z,4.25
2023-02-16T09:07:42.848Z,5.10
2023-02-16T09:10:14.404Z,4.30
2023-02-16T09:12:49.789Z,5.80
2023-02-16T09:15:21.454Z,5.05
2023-02-16T09:17:53.017Z,3.97
2023-02-16T09:20:24.780Z,5.00
2023-02-16T09:22:56.328Z,4.57
2023-02-16T09:25:28.090Z,4.70
2023-02-16T09:27:59.634Z,5.15
2023-02-16T09:30:31.920Z,4.13
2023-02-16T09:33:03.496Z,4.35
2023-02-16T09:35:35.142Z,4.25
2023-02-16T09:38:07.715Z,3.83
2023-02-16T09:40:39.513Z,3.97
2023-02-16T09:43:11.029Z,3.88
2023-02-16T09:45:43.038Z,4.97
2023-02-16T09:48:15.692Z,4.40
2023-02-16T09:50:54.362Z,3.80
2023-02-16T09:53:27.072Z,4.25
2023-02-16T09:55:59.983Z,4.35
2023-02-16T10:01:03.352Z,3.95
2023-02-16T10:03:34.845Z,5.00
2023-02-16T10:06:06.919Z,5.22
2023-02-16T10:08:38.954Z,4.47
2023-02-16T10:11:33.851Z,4.73
2023-02-16T10:14:05.343Z,4.32
2023-02-16T10:16:37.727Z,4.10
2023-02-16T10:19:09.280Z,3.65
2023-02-16T10:21:41.398Z,4.30
2023-02-16T10:24:13.361Z,4.25
2023-02-16T10:26:46.530Z,5.17
2023-02-16T10:29:18.145Z,5.05
2023-02-16T10:31:50.343Z,3.97
2023-02-16T10:34:23.443Z,4.10
2023-02-16T10:36:55.422Z,4.05
2023-02-16T10:39:26.917Z,4.63
2023-02-16T10:41:58.925Z,5.38
2023-02-16T10:44:30.468Z,5.13
2023-02-16T10:47:03.459Z,4.35
2023-02-16T10:52:06.939Z,4.80
2023-02-16T10:54:38.551Z,5.63
2023-02-16T10:57:11.599Z,4.97
2023-02-16T10:59:43.226Z,4.75
2023-02-16T11:02:14.721Z,4.35
2023-02-16T11:04:46.286Z,4.55
2023-02-16T11:07:18.673Z,4.85
2023-02-16T11:09:53.889Z,4.78
2023-02-16T11:12:25.723Z,4.90
2023-02-16T11:14:57.484Z,4.65
2023-02-16T11:17:29.333Z,4.30
2023-02-16T11:20:01.989Z,4.15
2023-02-16T11:25:05.526Z,4.80
2023-02-16T11:27:37.387Z,5.45
2023-02-16T11:30:09.441Z,4.90
2023-02-16T11:32:41.605Z,4.17
2023-02-16T11:35:13.090Z,4.68
2023-02-16T11:37:44.905Z,4.95
2023-02-16T11:40:16.390Z,3.97
2023-02-16T11:42:48.345Z,4.15
2023-02-16T11:45:19.840Z,4.63
2023-02-16T11:47:51.533Z,4.50
2023-02-16T11:50:23.680Z,4.82
2023-02-16T11:52:55.454Z,4.55
2023-02-16T11:55:27.117Z,5.20
2023-02-16T11:57:58.820Z,4.93
2023-02-16T12:00:31.691Z,4.47
2023-02-16T12:05:35.318Z,4.78
2023-02-16T12:08:07.202Z,5.03
2023-02-16T12:10:38.749Z,4.78
2023-02-16T12:13:10.599Z,4.32
2023-02-16T12:15:43.084Z,4.88
2023-02-16T12:18:14.654Z,4.63
2023-02-16T12:20:46.505Z,4.68
2023-02-16T12:23:18.285Z,4.47
2023-02-16T12:25:50.146Z,5.00
2023-02-16T12:28:21.655Z,4.30
2023-02-16T12:30:53.691Z,4.25
2023-02-16T12:33:26.728Z,3.90
2023-02-16T12:35:58.588Z,5.03
2023-02-16T12:38:30.094Z,4.93
2023-02-16T12:41:01.981Z,4.78
2023-02-16T12:43:33.546Z,4.28
2023-02-16T12:46:05.739Z,4.65
2023-02-16T12:48:38.702Z,3.60
2023-02-16T12:53:42.273Z,3.80
2023-02-16T12:56:13.852Z,4.28
2023-02-16T12:58:45.469Z,4.20
2023-02-16T13:01:17.993Z,4.72
2023-02-16T13:03:50.192Z,4.05
2023-02-16T13:06:21.762Z,4.95
2023-02-16T13:08:53.245Z,4.25
2023-02-16T13:11:25.186Z,5.07
2023-02-16T13:13:56.850Z,3.70
2023-02-16T13:16:30.869Z,3.70
2023-02-16T13:19:02.683Z,3.70
2023-02-16T13:21:42.488Z,4.03
2023-02-16T13:24:20.800Z,3.80
2023-02-16T13:26:52.610Z,4.97
2023-02-16T13:29:24.997Z,4.32
2023-02-16T13:31:56.803Z,4.88
2023-02-16T13:34:28.504Z,4.35
2023-02-16T13:37:00.222Z,4.03
2023-02-16T13:39:31.983Z,4.57
2023-02-16T13:42:03.772Z,4.35
2023-02-16T13:44:35.278Z,4.13
2023-02-16T13:47:07.088Z,3.58
2023-02-16T13:49:42.322Z,4.03
2023-02-16T13:52:13.882Z,3.92
2023-02-16T13:54:45.395Z,4.55
2023-02-16T13:57:18.405Z,3.72
2023-02-16T13:59:49.909Z,4.45
2023-02-16T14:02:21.509Z,4.10
2023-02-16T14:04:53.107Z,3.63
2023-02-16T14:07:24.973Z,3.53
2023-02-16T14:09:56.492Z,4.13
2023-02-16T14:12:28.537Z,4.75
2023-02-16T14:15:00.247Z,4.17
2023-02-16T14:17:32.284Z,3.90
2023-02-16T14:20:05.147Z,3.63
2023-02-16T14:25:08.811Z,3.70
2023-02-16T14:27:40.573Z,3.85
2023-02-16T14:30:12.234Z,3.72
2023-02-16T14:32:44.096Z,3.80
2023-02-16T14:35:15.669Z,3.50
2023-02-16T14:37:47.520Z,3.15
2023-02-16T14:40:19.065Z,3.97
2023-02-16T14:42:50.967Z,3.25
2023-02-16T14:45:22.574Z,3.58
2023-02-16T14:47:55.596Z,3.58
2023-02-16T14:50:28.595Z,3.70
2023-02-16T14:53:00.640Z,3.33
2023-02-16T14:55:32.132Z,3.17
2023-02-16T14:58:04.015Z,3.25
2023-02-16T15:00:35.822Z,3.03
2023-02-16T15:03:07.706Z,2.85
2023-02-16T15:05:39.717Z,3.15
2023-02-16T15:08:11.789Z,3.23
2023-02-16T15:10:46.340Z,3.00
2023-02-16T15:13:17.875Z,3.83
2023-02-16T15:15:50.032Z,3.40
2023-02-16T15:18:21.625Z,3.72
2023-02-16T15:20:53.167Z,3.40
2023-02-16T15:23:25.435Z,3.33
2023-02-16T15:25:56.987Z,3.60
2023-02-16T15:28:29.762Z,3.22
2023-02-16T15:31:01.545Z,4.20
2023-02-16T15:33:33.996Z,3.55
2023-02-16T15:36:07.423Z,4.03
2023-02-16T15:38:39.313Z,3.58
2023-02-16T15:41:10.871Z,3.83
2023-02-16T15:43:43.236Z,3.35
2023-02-16T15:46:15.854Z,2.92
2023-02-16T15:48:49.618Z,3.05
2023-02-16T15:51:21.150Z,3.78
2023-02-16T15:53:52.951Z,3.13
2023-02-16T15:56:24.492Z,4.07
2023-02-16T15:58:56.524Z,4.85
2023-02-16T16:01:33.006Z,2.93
2023-02-16T16:04:05.140Z,2.72
2023-02-16T16:06:36.706Z,3.90
2023-02-16T16:09:08.899Z,3.83
2023-02-16T16:11:40.929Z,3.17
2023-02-16T16:14:12.778Z,3.97
2023-02-16T16:19:17.817Z,4.07
2023-02-16T16:21:49.765Z,3.67
2023-02-16T16:24:22.501Z,3.60
2023-02-16T16:26:55.801Z,3.35
2023-02-16T16:29:29.872Z,3.47
2023-02-16T16:32:01.831Z,3.83
2023-02-16T16:34:33.428Z,4.70
2023-02-16T16:37:07.215Z,3.72
2023-02-16T16:39:40.424Z,4.18
2023-02-16T16:42:13.088Z,3.05
2023-02-16T16:44:44.676Z,3.40
2023-02-16T16:47:16.240Z,3.67
2023-02-16T16:49:47.744Z,3.28
2023-02-16T16:52:19.301Z,3.10
2023-02-16T16:54:51.724Z,2.83
2023-02-16T16:57:24.432Z,3.55
2023-02-16T16:59:56.107Z,3.90
2023-02-16T17:02:27.825Z,4.13
2023-02-16T17:04:59.341Z,4.10
2023-02-16T17:07:31.130Z,3.60
2023-02-16T17:10:02.681Z,4.20
2023-02-16T17:12:34.539Z,4.30
2023-02-16T17:15:06.052Z,3.60
2023-02-16T17:17:38.785Z,4.05
2023-02-16T17:20:10.281Z,3.75
2023-02-16T17:22:41.966Z,3.88
2023-02-16T17:25:13.464Z,3.70
2023-02-16T17:27:45.376Z,4.22
2023-02-16T17:30:17.021Z,4.68
2023-02-16T17:32:48.902Z,5.22
2023-02-16T17:35:20.467Z,4.50
2023-02-16T17:37:52.354Z,4.82
2023-02-16T17:40:23.855Z,5.03
2023-02-16T17:42:55.796Z,5.43
2023-02-16T17:45:27.299Z,4.82
2023-02-16T17:47:59.084Z,4.50
2023-02-16T17:50:32.687Z,5.40
2023-02-16T17:53:04.496Z,3.97
2023-02-16T17:55:36.001Z,4.57
2023-02-16T17:58:07.785Z,4.90
2023-02-16T18:00:39.301Z,5.57
2023-02-16T18:03:11.236Z,4.53
2023-02-16T18:05:42.754Z,4.22
2023-02-16T18:08:14.296Z,3.20
2023-02-16T18:10:45.816Z,4.47
2023-02-16T18:13:17.433Z,3.88
2023-02-16T18:15:48.932Z,4.85
2023-02-16T18:18:20.466Z,3.17
2023-02-16T18:20:51.978Z,4.03
2023-02-16T18:23:23.852Z,4.20
2023-02-16T18:25:55.387Z,4.18
2023-02-16T18:28:27.259Z,4.22
2023-02-16T18:30:58.858Z,4.53
2023-02-16T18:33:30.904Z,3.47
2023-02-16T18:36:02.704Z,3.87
2023-02-16T18:38:34.792Z,4.80
2023-02-16T18:41:06.319Z,3.47
2023-02-16T18:43:38.215Z,3.97
2023-02-16T18:46:09.774Z,3.00
2023-02-16T18:48:41.677Z,3.80
2023-02-16T18:51:13.184Z,4.78
2023-02-16T18:53:45.015Z,4.30
2023-02-16T18:56:16.527Z,3.65
2023-02-16T18:58:48.174Z,3.72
2023-02-16T19:01:19.786Z,4.82
2023-02-16T19:03:51.617Z,4.75
2023-02-16T19:06:23.096Z,4.80
2023-02-16T19:08:54.669Z,4.50
2023-02-16T19:11:28.045Z,4.47
2023-02-16T19:13:59.645Z,3.58
2023-02-16T19:16:31.208Z,4.47
2023-02-16T19:19:03.086Z,4.53
2023-02-16T19:21:34.590Z,3.53
2023-02-16T19:24:06.484Z,3.92
2023-02-16T19:26:37.993Z,4.55
2023-02-16T19:29:09.819Z,4.07
2023-02-16T19:31:41.467Z,4.65
2023-02-16T19:34:13.052Z,4.47
2023-02-16T19:36:44.638Z,4.90
2023-02-16T19:39:16.389Z,4.72
2023-02-16T19:41:47.885Z,4.00
2023-02-16T19:44:19.440Z,4.18
2023-02-16T19:46:51.235Z,4.25
2023-02-16T19:49:22.997Z,4.47
2023-02-16T19:51:55.546Z,4.00
2023-02-16T19:54:28.820Z,4.40
2023-02-16T19:57:00.341Z,4.53
2023-02-16T19:59:31.898Z,4.70
2023-02-16T20:02:03.820Z,3.78
2023-02-16T20:04:35.671Z,4.13
2023-02-16T20:07:08.533Z,4.38
2023-02-16T20:12:12.114Z,3.88
2023-02-16T20:14:43.860Z,3.55
2023-02-16T20:17:15.385Z,3.90
2023-02-16T20:19:47.304Z,4.65
2023-02-16T20:22:18.822Z,5.05
2023-02-16T20:24:50.704Z,4.20
2023-02-16T20:27:22.242Z,4.55
2023-02-16T20:29:54.338Z,4.22
2023-02-16T20:32:25.949Z,4.93
2023-02-16T20:34:57.778Z,4.70
2023-02-16T20:37:30.206Z,3.72
2023-02-16T20:40:01.787Z,4.50
2023-02-16T20:42:33.396Z,4.95
2023-02-16T20:45:05.451Z,4.93
2023-02-16T20:47:37.057Z,5.07
2023-02-16T20:50:08.604Z,3.25
2023-02-16T20:52:40.184Z,4.15
2023-02-16T20:55:12.099Z,5.35
2023-02-16T20:57:43.654Z,5.50
2023-02-16T21:00:16.441Z,4.88
2023-02-16T21:02:47.973Z,5.53
2023-02-16T21:05:19.508Z,5.22
2023-02-16T21:07:51.041Z,5.57
2023-02-16T21:10:22.860Z,4.55
2023-02-16T21:12:54.370Z,4.13
2023-02-16T21:15:26.116Z,4.57
2023-02-16T21:17:57.663Z,4.88
2023-02-16T21:20:29.318Z,4.35
2023-02-16T21:23:03.454Z,4.60
2023-02-16T21:25:35.194Z,4.75
2023-02-16T21:28:06.768Z,4.20
2023-02-16T21:30:38.593Z,4.85
2023-02-16T21:33:10.561Z,3.92
2023-02-16T21:35:42.103Z,3.13
2023-02-16T21:38:13.672Z,4.07
2023-02-16T21:41:04.227Z,4.82
2023-02-16T21:43:36.006Z,4.63
2023-02-16T21:46:08.600Z,4.20
2023-02-16T21:48:50.527Z,3.72
2023-02-16T21:51:22.095Z,3.90
2023-02-16T21:53:53.617Z,3.88
2023-02-16T21:56:25.146Z,3.70
2023-02-16T21:58:56.968Z,4.65
2023-02-16T22:01:28.534Z,4.72
2023-02-16T22:04:00.523Z,5.22
2023-02-16T22:06:35.016Z,5.20
2023-02-16T22:09:06.889Z,5.25
2023-02-16T22:11:38.418Z,5.18
2023-02-16T22:14:10.249Z,3.60
2023-02-16T22:16:41.801Z,4.35
2023-02-16T22:19:13.362Z,4.35
2023-02-16T22:21:44.900Z,4.10
2023-02-16T22:24:17.002Z,4.20
2023-02-16T22:26:48.560Z,5.20
2023-02-16T22:29:20.155Z,5.00
2023-02-16T22:31:51.697Z,3.80
2023-02-16T22:34:23.350Z,4.53
2023-02-16T22:36:54.892Z,5.05
2023-02-16T22:39:26.690Z,5.13
2023-02-16T22:41:58.221Z,4.68
2023-02-16T22:44:30.113Z,5.00
2023-02-16T22:47:01.709Z,5.38
2023-02-16T22:49:33.257Z,5.50
2023-02-16T22:52:04.782Z,4.45
2023-02-16T22:54:36.534Z,4.50
2023-02-16T22:57:08.063Z,4.40
2023-02-16T22:59:39.600Z,5.35
2023-02-16T23:02:11.137Z,5.00
2023-02-16T23:04:43.381Z,5.10
2023-02-16T23:07:15.018Z,5.47
2023-02-16T23:09:46.695Z,5.10
2023-02-16T23:12:18.787Z,4.95
2023-02-16T23:14:50.554Z,5.20
2023-02-16T23:17:22.081Z,4.95
2023-02-16T23:19:53.631Z,5.72
2023-02-16T23:22:25.138Z,5.70
2023-02-16T23:25:15.367Z,4.90
2023-02-16T23:27:46.854Z,5.55
2023-02-16T23:30:18.479Z,4.70
2023-02-16T23:32:50.031Z,5.32
2023-02-16T23:35:21.633Z,6.07
2023-02-16T23:37:53.142Z,3.95
2023-02-16T23:40:24.831Z,5.45
2023-02-16T23:42:56.397Z,5.13
2023-02-16T23:45:28.314Z,5.40
2023-02-16T23:47:59.828Z,3.83
2023-02-16T23:50:31.338Z,4.82
2023-02-16T23:53:02.886Z,5.63
2023-02-16T23:55:34.715Z,5.13
2023-02-16T23:58:06.238Z,5.22
